Time;durP1;ratioP1;P1;durP2;ratioP2;P2;SDS_P1;SDS_P2;PMS_P1;PMS_P2;Temp;Humidity;BMP_temperature;BMP_pressure;BME280_temperature;BME280_humidity;BME280_pressure;Samples;Min_cycle;Max_cycle;Signal;HPM_P1;HPM_P2
2023/01/19 04:02:57;;;;;;;21.77;16.70;;;-2.40;99.90;;;;;;4996239;28;20253;-80
2023/01/19 04:05:23;;;;;;;23.13;17.00;;;-2.40;99.90;;;;;;4993064;28;20212;-76
2023/01/19 04:07:50;;;;;;;24.57;17.00;;;-2.50;99.90;;;;;;4993403;28;20186;-81
2023/01/19 04:10:19;;;;;;;22.40;16.53;;;-2.50;99.90;;;;;;4977614;28;20177;-79
2023/01/19 04:12:45;;;;;;;20.43;17.37;;;-2.60;99.90;;;;;;4976382;28;20386;-79
2023/01/19 04:15:11;;;;;;;22.40;17.87;;;-2.70;99.90;;;;;;4976837;28;20660;-80
2023/01/19 04:17:38;;;;;;;22.73;17.13;;;-2.80;99.90;;;;;;4980481;28;20188;-77
2023/01/19 04:20:04;;;;;;;18.93;15.67;;;-2.80;99.90;;;;;;4977605;28;20734;-79
2023/01/19 04:22:30;;;;;;;19.70;16.30;;;-2.90;99.90;;;;;;4993829;28;20203;-80
2023/01/19 04:24:56;;;;;;;20.07;15.60;;;-3.00;99.90;;;;;;4970423;28;20257;-79
2023/01/19 04:27:22;;;;;;;26.33;23.77;;;-3.10;99.90;;;;;;4980475;28;20185;-79
2023/01/19 04:29:48;;;;;;;19.67;14.83;;;-3.20;99.90;;;;;;4993295;28;20176;-79
2023/01/19 04:32:14;;;;;;;18.00;16.03;;;-3.20;99.90;;;;;;4971746;28;20197;-80
2023/01/19 04:34:40;;;;;;;16.93;15.17;;;-3.20;99.90;;;;;;4980986;28;20243;-79
2023/01/19 04:37:07;;;;;;;25.23;15.87;;;-3.20;99.90;;;;;;4963101;28;20279;-79
2023/01/19 04:39:33;;;;;;;22.37;17.00;;;-3.10;99.90;;;;;;4964905;28;20190;-79
2023/01/19 04:41:59;;;;;;;20.23;15.73;;;-3.20;99.90;;;;;;4980920;28;20217;-79
2023/01/19 04:44:26;;;;;;;17.60;15.60;;;-3.20;99.90;;;;;;4979849;28;20554;-79
2023/01/19 04:46:52;;;;;;;21.97;15.80;;;-3.30;99.90;;;;;;4983890;28;20196;-79
2023/01/19 04:49:18;;;;;;;17.13;15.10;;;-3.30;99.90;;;;;;4973162;28;20548;-79
2023/01/19 04:51:44;;;;;;;24.37;17.17;;;-3.40;99.90;;;;;;4969629;28;20205;-80
2023/01/19 04:54:09;;;;;;;18.10;16.20;;;-3.50;99.90;;;;;;4987683;28;20212;-80
2023/01/19 04:56:37;;;;;;;20.80;16.97;;;-3.40;99.90;;;;;;4967830;28;20204;-79
2023/01/19 04:59:03;;;;;;;21.20;17.60;;;-3.40;99.90;;;;;;4983601;28;20192;-79
2023/01/19 05:01:28;;;;;;;23.50;18.60;;;-3.50;99.90;;;;;;4983687;28;20220;-80
2023/01/19 05:03:57;;;;;;;19.20;17.17;;;-3.50;99.90;;;;;;4991375;28;20192;-79
2023/01/19 05:06:23;;;;;;;22.83;17.93;;;-3.50;99.90;;;;;;5001520;28;20212;-79
2023/01/19 05:08:49;;;;;;;19.63;17.73;;;-3.40;99.90;;;;;;4983926;28;20177;-79
2023/01/19 05:11:15;;;;;;;21.37;18.67;;;-3.50;99.90;;;;;;4983640;28;20215;-79
2023/01/19 05:13:41;;;;;;;22.03;16.50;;;-3.50;99.90;;;;;;5000312;28;20180;-79
2023/01/19 05:16:07;;;;;;;20.90;17.77;;;-3.50;99.90;;;;;;4983135;28;20200;-79
2023/01/19 05:18:35;;;;;;;21.53;18.17;;;-3.50;99.90;;;;;;4985489;28;20181;-80
2023/01/19 05:21:04;;;;;;;22.50;18.13;;;-3.50;99.90;;;;;;4983487;28;20696;-79
2023/01/19 05:23:31;;;;;;;20.60;17.80;;;-3.50;99.90;;;;;;4983553;28;20725;-79
2023/01/19 05:26:02;;;;;;;25.67;17.20;;;-3.50;99.90;;;;;;5004985;28;20236;-80
2023/01/19 05:28:31;;;;;;;24.93;22.00;;;-3.50;99.90;;;;;;4985772;28;20180;-79
2023/01/19 05:30:57;;;;;;;21.33;17.97;;;-3.50;99.90;;;;;;4986555;28;20204;-79
2023/01/19 05:33:24;;;;;;;22.43;18.70;;;-3.40;99.90;;;;;;4985869;28;20187;-80
2023/01/19 05:35:53;;;;;;;26.13;17.97;;;-3.40;99.90;;;;;;4977473;28;20185;-70
2023/01/19 05:38:19;;;;;;;26.90;19.93;;;-3.40;99.90;;;;;;4975753;28;20180;-70
2023/01/19 05:40:45;;;;;;;23.97;17.80;;;-3.40;99.90;;;;;;4993928;28;20221;-70
2023/01/19 05:43:12;;;;;;;24.43;18.50;;;-3.30;99.90;;;;;;4993454;28;20181;-70
2023/01/19 05:45:37;;;;;;;24.87;18.47;;;-3.30;99.90;;;;;;4976585;28;20270;-70
2023/01/19 05:48:04;;;;;;;21.97;18.97;;;-3.30;99.90;;;;;;4993883;28;20263;-71
2023/01/19 05:50:31;;;;;;;22.10;17.10;;;-3.30;99.90;;;;;;4993920;28;20694;-70
2023/01/19 05:52:58;;;;;;;25.80;18.07;;;-3.30;99.90;;;;;;4976719;28;20176;-70
2023/01/19 05:55:24;;;;;;;29.17;19.00;;;-3.30;99.90;;;;;;4976580;28;20250;-70
2023/01/19 05:57:50;;;;;;;30.33;19.07;;;-3.20;99.90;;;;;;4993032;28;20283;-70
2023/01/19 06:00:16;;;;;;;24.93;18.90;;;-3.30;99.90;;;;;;4993884;28;20370;-70
2023/01/19 06:02:42;;;;;;;26.60;19.17;;;-3.30;99.90;;;;;;4976095;28;20248;-70
2023/01/19 06:05:08;;;;;;;24.57;20.67;;;-3.40;99.90;;;;;;4975674;28;20375;-70
2023/01/19 06:07:34;;;;;;;29.53;21.20;;;-3.50;99.90;;;;;;4975784;28;20181;-70
2023/01/19 06:10:00;;;;;;;24.27;17.77;;;-3.50;99.90;;;;;;4975937;28;20192;-70
2023/01/19 06:12:25;;;;;;;23.97;19.87;;;-3.50;99.90;;;;;;4993101;28;20204;-70
2023/01/19 06:14:51;;;;;;;25.90;23.23;;;-3.50;99.90;;;;;;4993051;28;20191;-70
2023/01/19 06:17:17;;;;;;;25.57;19.23;;;-3.50;99.90;;;;;;4975880;28;20214;-71
2023/01/19 06:19:43;;;;;;;33.97;21.50;;;-3.50;99.90;;;;;;4992787;28;20607;-70
2023/01/19 06:22:08;;;;;;;27.10;18.50;;;-3.50;99.90;;;;;;4993362;28;20316;-70
2023/01/19 06:24:34;;;;;;;26.03;20.73;;;-3.50;99.90;;;;;;4992969;28;20188;-70
2023/01/19 06:27:00;;;;;;;28.40;21.00;;;-3.40;99.90;;;;;;4992492;28;20188;-70
2023/01/19 06:29:26;;;;;;;28.53;25.47;;;-3.40;99.90;;;;;;4975402;28;20605;-66
2023/01/19 06:31:52;;;;;;;25.73;20.00;;;-3.30;99.90;;;;;;4992845;28;20199;-66
2023/01/19 06:34:18;;;;;;;24.13;19.73;;;-3.30;99.90;;;;;;4975489;28;20275;-66
2023/01/19 06:36:45;;;;;;;25.30;19.73;;;-3.30;99.90;;;;;;4992436;28;20263;-67
2023/01/19 06:39:11;;;;;;;22.60;17.90;;;-3.30;99.90;;;;;;4992793;28;20211;-67
2023/01/19 06:41:37;;;;;;;30.97;24.43;;;-3.40;99.90;;;;;;4992288;28;20196;-70
2023/01/19 06:44:04;;;;;;;25.03;20.40;;;-3.30;99.90;;;;;;4992749;28;20566;-70
2023/01/19 06:46:30;;;;;;;28.83;21.37;;;-3.40;99.90;;;;;;4974975;28;20242;-70
2023/01/19 06:48:56;;;;;;;22.03;19.57;;;-3.40;99.90;;;;;;4991358;28;20701;-70
2023/01/19 06:51:22;;;;;;;40.03;36.30;;;-3.40;99.90;;;;;;4975448;28;20200;-70
2023/01/19 06:53:48;;;;;;;28.40;19.53;;;-3.50;99.90;;;;;;4992306;28;20183;-70
2023/01/19 06:56:14;;;;;;;23.80;18.43;;;-3.60;99.90;;;;;;4991838;28;20180;-70
2023/01/19 06:58:41;;;;;;;19.40;16.87;;;-3.60;99.90;;;;;;4992418;28;20188;-70
2023/01/19 07:01:07;;;;;;;20.17;16.60;;;-3.70;99.90;;;;;;4975064;28;20219;-70
2023/01/19 07:03:34;;;;;;;23.33;18.10;;;-3.80;99.90;;;;;;4992789;28;20188;-70
2023/01/19 07:06:01;;;;;;;24.23;21.47;;;-3.90;99.90;;;;;;4975073;28;20204;-70
2023/01/19 07:08:30;;;;;;;23.43;19.97;;;-3.80;99.90;;;;;;4992279;28;20180;-70
2023/01/19 07:11:10;;;;;;;25.90;18.37;;;-3.80;99.90;;;;;;4992441;28;20224;-70
2023/01/19 07:13:38;;;;;;;22.37;19.03;;;-3.90;99.90;;;;;;4992390;28;20180;-70
2023/01/19 07:16:09;;;;;;;26.33;19.77;;;-3.80;99.90;;;;;;4992296;28;20760;-70
2023/01/19 07:18:36;;;;;;;23.37;19.00;;;-3.80;99.90;;;;;;4990695;28;20382;-70
2023/01/19 07:21:02;;;;;;;21.77;17.60;;;-3.80;99.90;;;;;;4992255;28;20691;-70
2023/01/19 07:23:29;;;;;;;23.53;19.40;;;-3.80;99.90;;;;;;4974642;28;20195;-70
2023/01/19 07:26:00;;;;;;;22.23;19.53;;;-3.80;99.90;;;;;;4974859;28;20231;-70
2023/01/19 07:28:27;;;;;;;21.10;18.27;;;-3.80;99.90;;;;;;4991527;28;20617;-70
2023/01/19 07:30:54;;;;;;;31.63;20.03;;;-3.80;99.90;;;;;;4992087;28;20202;-70
2023/01/19 07:33:23;;;;;;;25.90;18.83;;;-3.80;99.90;;;;;;4992041;28;20295;-70
2023/01/19 07:35:50;;;;;;;29.13;20.93;;;-3.70;99.90;;;;;;4991930;28;20203;-70
2023/01/19 07:38:17;;;;;;;30.53;22.27;;;-3.60;99.90;;;;;;4990239;28;20219;-70
2023/01/19 07:40:45;;;;;;;31.67;22.43;;;-3.50;99.90;;;;;;4991843;28;20180;-70
2023/01/19 07:43:12;;;;;;;26.67;20.37;;;-3.50;99.90;;;;;;4974616;28;20575;-70
2023/01/19 07:45:37;;;;;;;26.37;19.80;;;-3.40;99.90;;;;;;4991779;28;20340;-70
2023/01/19 07:48:04;;;;;;;30.13;20.60;;;-3.40;99.90;;;;;;4990795;28;20208;-70
2023/01/19 07:50:30;;;;;;;31.73;21.17;;;-3.30;99.90;;;;;;4974645;28;20186;-70
2023/01/19 07:52:55;;;;;;;31.97;21.77;;;-3.20;99.90;;;;;;4991888;28;20607;-70
2023/01/19 07:55:22;;;;;;;35.30;22.37;;;-3.10;99.90;;;;;;4991842;28;20211;-70
2023/01/19 07:57:52;;;;;;;32.93;20.57;;;-2.90;99.90;;;;;;4974029;28;20581;-69
2023/01/19 08:00:20;;;;;;;28.67;19.23;;;-2.90;99.90;;;;;;4991797;28;20184;-69
2023/01/19 08:02:50;;;;;;;28.40;20.53;;;-2.90;99.90;;;;;;4991256;28;20303;-69
2023/01/19 08:05:17;;;;;;;30.63;19.50;;;-2.90;99.90;;;;;;4991552;28;20240;-69
2023/01/19 08:07:45;;;;;;;33.13;21.10;;;-2.80;99.90;;;;;;4991504;28;20684;-70
2023/01/19 08:10:15;;;;;;;25.50;19.50;;;-2.80;99.90;;;;;;4992145;28;20196;-70
2023/01/19 08:12:41;;;;;;;28.57;20.80;;;-2.90;99.90;;;;;;4974074;28;20762;-71
2023/01/19 08:15:10;;;;;;;32.27;21.80;;;-2.90;99.90;;;;;;4991508;28;20268;-71
2023/01/19 08:17:36;;;;;;;29.00;21.23;;;-2.90;99.90;;;;;;4990891;28;20246;-69
2023/01/19 08:20:03;;;;;;;31.47;21.57;;;-2.90;99.90;;;;;;4991618;28;20216;-70
2023/01/19 08:22:29;;;;;;;31.07;21.47;;;-2.60;99.90;;;;;;4991393;28;20204;-70
2023/01/19 08:24:54;;;;;;;35.97;25.40;;;-2.20;99.90;;;;;;4991660;28;20216;-70
2023/01/19 08:27:20;;;;;;;33.60;23.70;;;-1.80;99.90;;;;;;4973979;28;20189;-70
2023/01/19 08:29:46;;;;;;;28.80;20.17;;;-1.40;99.90;;;;;;4991069;28;20267;-70
2023/01/19 08:32:12;;;;;;;38.10;23.40;;;-1.10;99.90;;;;;;4973943;28;20259;-70
2023/01/19 08:34:37;;;;;;;37.17;23.33;;;-0.80;99.90;;;;;;4991243;28;20187;-71
2023/01/19 08:37:03;;;;;;;31.50;24.10;;;-0.60;99.90;;;;;;4973748;28;20751;-71
2023/01/19 08:39:29;;;;;;;32.30;26.87;;;-0.40;99.90;;;;;;4991089;28;21524;-71
2023/01/19 08:41:54;;;;;;;32.17;24.57;;;-0.40;99.90;;;;;;4991308;28;20201;-71
2023/01/19 08:44:20;;;;;;;33.73;25.00;;;-0.20;99.90;;;;;;4974074;28;20575;-71
2023/01/19 08:46:46;;;;;;;33.33;30.20;;;0.10;99.90;;;;;;4991609;28;20242;-71
2023/01/19 08:49:12;;;;;;;22.43;17.40;;;0.10;99.90;;;;;;4991230;28;20230;-71
2023/01/19 08:51:38;;;;;;;21.23;18.70;;;0.30;99.90;;;;;;4991302;28;20207;-70
2023/01/19 08:54:03;;;;;;;19.63;16.23;;;0.50;99.90;;;;;;4991000;28;20264;-70
2023/01/19 08:56:30;;;;;;;20.87;18.80;;;0.70;99.90;;;;;;4991179;28;20189;-70
2023/01/19 08:58:56;;;;;;;25.40;22.73;;;0.90;99.90;;;;;;4993042;28;20184;-70
2023/01/19 09:01:22;;;;;;;26.87;18.30;;;1.20;99.90;;;;;;4994725;28;20234;-70
2023/01/19 09:03:48;;;;;;;23.00;17.20;;;1.80;99.90;;;;;;4994744;28;20575;-70
2023/01/19 09:06:18;;;;;;;19.63;15.97;;;2.10;99.90;;;;;;4977568;28;20590;-70
2023/01/19 09:08:45;;;;;;;20.73;17.40;;;2.00;99.90;;;;;;4993018;28;20267;-70
2023/01/19 09:11:13;;;;;;;23.97;19.27;;;1.60;99.90;;;;;;4994703;28;20209;-70
2023/01/19 09:13:40;;;;;;;19.13;17.07;;;1.30;99.90;;;;;;4994640;28;20180;-70
2023/01/19 09:16:06;;;;;;;19.83;13.97;;;1.00;99.90;;;;;;4994645;28;20182;-70
2023/01/19 09:18:33;;;;;;;18.53;16.07;;;0.70;99.90;;;;;;4994368;28;20359;-70
2023/01/19 09:21:00;;;;;;;21.93;17.50;;;0.70;99.90;;;;;;4994409;28;20490;-70
2023/01/19 09:23:27;;;;;;;24.30;17.80;;;0.80;99.90;;;;;;4994683;28;20200;-70
2023/01/19 09:25:58;;;;;;;18.67;16.63;;;0.80;99.90;;;;;;4994225;28;20232;-70
2023/01/19 09:28:24;;;;;;;18.83;16.40;;;1.00;99.90;;;;;;4994032;28;20191;-70
2023/01/19 09:30:50;;;;;;;16.87;15.07;;;1.10;99.90;;;;;;4994175;28;20212;-70
2023/01/19 09:33:18;;;;;;;19.13;14.00;;;1.30;99.90;;;;;;4994260;28;20188;-70
2023/01/19 09:35:45;;;;;;;15.20;13.67;;;1.30;99.90;;;;;;4976616;28;20214;-70
2023/01/19 09:38:14;;;;;;;17.60;14.63;;;1.30;99.90;;;;;;4993863;28;20591;-71
2023/01/19 09:40:48;;;;;;;16.27;13.50;;;1.30;99.90;;;;;;4994054;28;20244;-72
2023/01/19 09:43:19;;;;;;;14.20;11.60;;;1.50;99.90;;;;;;4994853;28;20192;-71
2023/01/19 09:45:59;;;;;;;13.87;12.33;;;1.60;99.90;;;;;;4994544;28;20289;-71
2023/01/19 09:48:31;;;;;;;11.90;10.90;;;1.60;99.90;;;;;;4976833;28;20271;-72
2023/01/19 09:51:01;;;;;;;15.20;13.90;;;1.60;99.90;;;;;;4994117;28;20210;-71
2023/01/19 09:53:39;;;;;;;18.77;16.97;;;1.50;99.90;;;;;;4994147;28;20205;-71
2023/01/19 09:56:12;;;;;;;15.67;14.20;;;1.40;99.90;;;;;;4983044;28;20194;-72
2023/01/19 09:58:39;;;;;;;16.63;15.20;;;1.40;99.90;;;;;;4994765;28;20733;-72
2023/01/19 10:01:26;;;;;;;16.23;14.83;;;1.40;99.90;;;;;;4976140;28;20557;-71
2023/01/19 10:04:19;;;;;;;16.70;15.20;;;1.50;99.90;;;;;;4976605;28;20187;-71
2023/01/19 10:06:45;;;;;;;17.17;15.77;;;1.50;99.90;;;;;;4993783;28;20212;-70
2023/01/19 10:09:38;;;;;;;17.53;15.97;;;1.50;99.90;;;;;;4993291;28;20186;-73
2023/01/19 10:12:16;;;;;;;15.93;14.43;;;1.50;99.90;;;;;;4993377;28;20204;-73
2023/01/19 10:15:00;;;;;;;15.63;14.33;;;1.50;99.90;;;;;;4976321;28;20273;-71
2023/01/19 10:18:00;;;;;;;16.93;15.33;;;1.50;99.90;;;;;;4993537;28;20250;-70
2023/01/19 10:20:32;;;;;;;16.50;14.10;;;1.60;99.90;;;;;;4993300;28;20561;-70
2023/01/19 10:22:59;;;;;;;13.87;12.63;;;1.70;99.90;;;;;;4993494;28;20217;-70
2023/01/19 10:25:26;;;;;;;12.60;11.60;;;1.80;99.90;;;;;;4975708;28;20215;-70
2023/01/19 10:27:52;;;;;;;11.90;10.80;;;2.00;99.90;;;;;;4992969;28;20186;-70
2023/01/19 10:30:22;;;;;;;11.27;10.23;;;2.10;99.90;;;;;;4993270;28;20190;-71
2023/01/19 10:32:49;;;;;;;11.70;10.60;;;2.30;99.90;;;;;;4976342;28;20203;-72
2023/01/19 10:35:22;;;;;;;9.93;9.03;;;2.40;99.90;;;;;;4993136;28;20187;-71
2023/01/19 10:37:48;;;;;;;11.03;10.00;;;2.50;99.90;;;;;;4992857;28;20283;-71
2023/01/19 10:40:38;;;;;;;11.37;10.47;;;2.60;99.90;;;;;;4993443;28;20184;-72
2023/01/19 10:43:32;;;;;;;9.83;8.97;;;2.70;99.90;;;;;;4975565;28;20281;-71
2023/01/19 10:45:58;;;;;;;9.30;8.60;;;2.70;99.90;;;;;;4993505;28;20302;-71
2023/01/19 10:48:24;;;;;;;12.20;10.27;;;2.70;99.90;;;;;;4992853;28;20358;-71
2023/01/19 10:51:01;;;;;;;18.73;9.93;;;2.70;99.90;;;;;;4992937;28;20266;-72
2023/01/19 10:53:27;;;;;;;10.57;9.57;;;2.80;99.90;;;;;;4975791;28;20275;-71
2023/01/19 10:56:20;;;;;;;9.63;8.83;;;2.70;99.90;;;;;;4992705;28;20684;-71
2023/01/19 10:58:45;;;;;;;9.23;8.43;;;2.80;99.90;;;;;;4992659;28;20218;-69
2023/01/19 11:01:24;;;;;;;10.37;9.43;;;2.90;99.90;;;;;;4975417;28;20260;-69
2023/01/19 11:03:52;;;;;;;9.27;8.57;;;3.00;99.90;;;;;;4992949;28;20227;-70
2023/01/19 11:06:17;;;;;;;10.07;8.30;;;3.10;99.90;;;;;;4975349;28;20211;-69
2023/01/19 11:08:45;;;;;;;11.37;8.50;;;3.30;99.90;;;;;;4975300;28;20249;-70
2023/01/19 11:11:12;;;;;;;8.67;7.97;;;3.50;99.90;;;;;;4993519;28;20570;-70
2023/01/19 11:13:40;;;;;;;9.53;8.13;;;3.70;99.90;;;;;;4975034;28;20176;-70
2023/01/19 11:16:17;;;;;;;10.77;9.40;;;3.60;99.90;;;;;;4974877;28;20210;-70
2023/01/19 11:18:45;;;;;;;11.33;7.87;;;3.60;99.90;;;;;;4974672;28;20187;-69
2023/01/19 11:21:16;;;;;;;11.83;8.33;;;3.60;99.90;;;;;;4974277;28;20207;-69
2023/01/19 11:23:55;;;;;;;16.23;9.70;;;3.80;99.90;;;;;;4974812;28;20203;-70
2023/01/19 11:26:32;;;;;;;10.10;7.87;;;4.00;99.90;;;;;;4992039;28;20211;-70
2023/01/19 11:29:00;;;;;;;22.90;9.87;;;4.00;99.90;;;;;;4991972;28;20675;-71
2023/01/19 11:31:31;;;;;;;9.30;8.40;;;3.90;99.90;;;;;;4992337;28;20208;-69
2023/01/19 11:34:21;;;;;;;9.67;8.90;;;4.00;99.90;;;;;;4974889;28;20195;-70
2023/01/19 11:36:56;;;;;;;12.83;8.83;;;3.90;99.90;;;;;;4991792;28;20196;-70
2023/01/19 11:39:26;;;;;;;9.27;8.30;;;3.70;99.90;;;;;;4974879;28;20748;-70
2023/01/19 11:41:59;;;;;;;16.27;8.47;;;3.50;99.90;;;;;;4991933;28;20586;-70
2023/01/19 11:44:32;;;;;;;9.47;8.57;;;3.30;99.90;;;;;;4992256;28;20201;-71
2023/01/19 11:47:04;;;;;;;10.20;8.00;;;3.20;99.90;;;;;;4974049;28;20188;-70
2023/01/19 11:50:07;;;;;;;15.23;10.30;;;3.10;99.90;;;;;;4974806;28;20184;-68
2023/01/19 11:52:46;;;;;;;9.47;8.60;;;2.80;99.90;;;;;;4991836;28;20561;-70
2023/01/19 11:55:33;;;;;;;9.23;8.47;;;2.60;99.90;;;;;;4974456;28;20188;-70
2023/01/19 11:57:58;;;;;;;9.50;8.70;;;2.60;99.90;;;;;;4991677;28;20194;-69
2023/01/19 12:00:46;;;;;;;11.30;8.57;;;2.60;99.90;;;;;;4991805;28;20187;-68
2023/01/19 12:03:35;;;;;;;10.23;8.23;;;2.60;99.90;;;;;;4991846;28;20237;-70
2023/01/19 12:06:17;;;;;;;16.30;9.23;;;2.50;99.90;;;;;;4974343;28;20242;-69
2023/01/19 12:08:50;;;;;;;12.17;9.33;;;2.50;99.90;;;;;;4991220;28;20659;-69
2023/01/19 12:11:21;;;;;;;9.50;8.63;;;2.60;99.90;;;;;;4991732;28;20299;-69
2023/01/19 12:13:47;;;;;;;13.93;8.57;;;2.70;99.90;;;;;;4991650;28;20192;-70
2023/01/19 12:16:18;;;;;;;14.77;8.80;;;2.70;99.90;;;;;;4991716;28;20204;-70
2023/01/19 12:18:58;;;;;;;14.17;9.77;;;2.70;99.90;;;;;;4974192;28;20182;-70
2023/01/19 12:21:24;;;;;;;16.00;9.57;;;2.70;99.90;;;;;;4993572;28;20200;-70
2023/01/19 12:23:54;;;;;;;15.27;9.20;;;2.90;99.90;;;;;;4974558;28;20607;-69
2023/01/19 12:26:47;;;;;;;16.50;9.67;;;3.00;99.90;;;;;;4991427;28;20215;-69
2023/01/19 12:29:18;;;;;;;9.97;8.90;;;3.10;99.90;;;;;;4974010;28;20668;-70
2023/01/19 12:31:44;;;;;;;13.00;9.20;;;3.10;99.90;;;;;;4974428;28;20230;-71
2023/01/19 12:34:29;;;;;;;20.90;9.37;;;3.00;99.90;;;;;;4994326;28;20182;-70
2023/01/19 12:37:02;;;;;;;14.20;9.37;;;3.00;99.90;;;;;;4995440;28;20185;-70
2023/01/19 12:39:29;;;;;;;9.60;8.70;;;3.00;99.90;;;;;;4995573;28;20241;-70
2023/01/19 12:42:16;;;;;;;10.67;9.57;;;3.10;99.90;;;;;;4995351;28;20245;-70
2023/01/19 12:44:44;;;;;;;14.27;9.30;;;3.10;99.90;;;;;;4995232;28;20187;-70
2023/01/19 12:47:11;;;;;;;25.43;9.83;;;3.00;99.90;;;;;;4994828;28;20177;-71
2023/01/19 12:49:37;;;;;;;11.97;9.30;;;3.00;99.90;;;;;;4995027;28;20188;-70
2023/01/19 12:52:17;;;;;;;9.77;8.97;;;2.90;99.90;;;;;;4978308;28;20199;-70
2023/01/19 12:54:52;;;;;;;9.70;8.63;;;2.80;99.90;;;;;;4977625;28;20278;-70
2023/01/19 12:57:38;;;;;;;18.07;9.00;;;2.70;99.90;;;;;;4994708;28;20675;-70
2023/01/19 13:00:24;;;;;;;15.83;9.80;;;2.60;99.90;;;;;;4984510;28;20195;-69
2023/01/19 13:02:54;;;;;;;18.40;9.33;;;2.50;99.90;;;;;;4994481;28;20219;-70
2023/01/19 13:05:30;;;;;;;15.37;9.70;;;2.50;99.90;;;;;;4995089;28;20219;-70
2023/01/19 13:08:05;;;;;;;15.67;9.23;;;2.40;99.90;;;;;;4994513;28;20332;-70
2023/01/19 13:10:54;;;;;;;26.47;9.80;;;2.40;99.90;;;;;;4977517;28;20201;-70
2023/01/19 13:13:22;;;;;;;19.43;9.57;;;2.40;99.90;;;;;;4985369;28;20668;-70
2023/01/19 13:15:48;;;;;;;13.00;9.77;;;2.40;99.90;;;;;;4995047;28;20527;-71
2023/01/19 13:18:26;;;;;;;20.47;9.90;;;2.30;99.90;;;;;;4977792;28;20543;-70
2023/01/19 13:21:03;;;;;;;10.13;8.87;;;2.30;99.90;;;;;;4994756;28;20622;-70
2023/01/19 13:23:48;;;;;;;11.03;9.27;;;2.20;99.90;;;;;;4977528;28;20190;-69
2023/01/19 13:26:19;;;;;;;17.13;9.30;;;2.20;99.90;;;;;;4994281;28;20229;-70
2023/01/19 13:29:12;;;;;;;10.60;9.43;;;2.10;99.90;;;;;;4993821;28;20186;-69
2023/01/19 13:31:41;;;;;;;11.50;9.60;;;2.10;99.90;;;;;;4994199;28;20282;-70
2023/01/19 13:34:18;;;;;;;10.40;9.53;;;2.10;99.90;;;;;;4995485;28;20191;-69
2023/01/19 13:36:49;;;;;;;9.73;8.83;;;2.10;99.90;;;;;;4994248;28;20197;-68
2023/01/19 13:39:23;;;;;;;10.33;9.43;;;2.00;99.90;;;;;;4976861;28;20189;-69
2023/01/19 13:41:53;;;;;;;10.80;9.90;;;1.90;99.90;;;;;;4994359;28;20207;-69
2023/01/19 13:44:33;;;;;;;10.07;9.27;;;1.90;99.90;;;;;;4993338;28;20188;-69
2023/01/19 13:47:03;;;;;;;10.53;9.70;;;1.80;99.90;;;;;;4994206;28;20362;-69
2023/01/19 13:49:37;;;;;;;14.43;11.43;;;1.70;99.90;;;;;;4994005;28;20273;-70
2023/01/19 13:52:27;;;;;;;12.00;11.07;;;1.70;99.90;;;;;;4993943;28;20240;-69
2023/01/19 13:55:00;;;;;;;11.33;10.33;;;1.70;99.90;;;;;;4976362;28;20230;-70
2023/01/19 13:57:40;;;;;;;10.90;10.10;;;1.60;99.90;;;;;;4993530;28;20602;-70
2023/01/19 14:00:15;;;;;;;10.90;9.80;;;1.70;99.90;;;;;;4993629;28;20193;-69
2023/01/19 14:02:52;;;;;;;11.33;10.23;;;1.70;99.90;;;;;;4976095;28;20219;-70
2023/01/19 14:05:24;;;;;;;10.77;10.07;;;1.70;99.90;;;;;;4993633;28;20590;-70
2023/01/19 14:08:11;;;;;;;11.20;10.17;;;1.80;99.90;;;;;;4993379;28;20202;-70
2023/01/19 14:10:52;;;;;;;10.33;9.43;;;1.80;99.90;;;;;;4976273;28;20556;-70
2023/01/19 14:13:19;;;;;;;11.07;10.37;;;1.70;99.90;;;;;;4993970;28;20580;-70
2023/01/19 14:15:48;;;;;;;12.60;11.40;;;1.80;99.90;;;;;;4976442;28;20178;-70
2023/01/19 14:18:17;;;;;;;10.70;9.90;;;1.80;99.90;;;;;;4993595;28;20495;-70
2023/01/19 14:21:06;;;;;;;11.43;10.57;;;1.80;99.90;;;;;;4993592;28;20194;-70
2023/01/19 14:23:49;;;;;;;10.40;9.53;;;1.70;99.90;;;;;;4993544;28;20195;-72
2023/01/19 14:26:36;;;;;;;11.70;10.53;;;1.70;99.90;;;;;;4993265;28;20241;-69
2023/01/19 14:29:20;;;;;;;11.20;10.07;;;1.70;99.90;;;;;;4976481;28;20187;-70
2023/01/19 14:32:14;;;;;;;12.07;10.97;;;1.70;99.90;;;;;;4993672;28;20595;-70
2023/01/19 14:34:49;;;;;;;13.27;11.23;;;1.70;99.90;;;;;;4993401;28;20193;-70
2023/01/19 14:37:19;;;;;;;12.20;11.10;;;1.80;99.90;;;;;;4992831;28;20566;-70
2023/01/19 14:39:48;;;;;;;13.17;11.87;;;1.80;99.90;;;;;;4976013;28;20263;-70
2023/01/19 14:42:18;;;;;;;14.20;12.90;;;1.80;99.90;;;;;;4993001;28;20577;-70
2023/01/19 14:44:47;;;;;;;13.10;12.00;;;1.70;99.90;;;;;;4995005;28;20202;-70
2023/01/19 14:47:28;;;;;;;13.40;12.20;;;1.80;99.90;;;;;;4992669;28;20249;-70
2023/01/19 14:50:18;;;;;;;12.90;11.63;;;1.80;99.90;;;;;;4992905;28;20191;-70
2023/01/19 14:52:53;;;;;;;24.47;17.67;;;1.80;99.90;;;;;;4982605;28;20273;-70
2023/01/19 14:55:30;;;;;;;24.43;19.33;;;1.80;99.90;;;;;;4975526;28;20204;-70
2023/01/19 14:57:56;;;;;;;24.10;18.83;;;1.90;99.90;;;;;;4992436;28;20197;-70
2023/01/19 15:00:22;;;;;;;24.10;19.33;;;1.90;99.90;;;;;;4992832;28;20553;-69
2023/01/19 15:02:47;;;;;;;16.07;14.43;;;1.80;99.90;;;;;;4992367;28;20230;-70
2023/01/19 15:05:14;;;;;;;14.17;13.00;;;1.80;99.90;;;;;;4975237;28;20205;-70
2023/01/19 15:07:43;;;;;;;23.73;21.97;;;1.80;99.90;;;;;;4974821;28;20187;-70
2023/01/19 15:10:21;;;;;;;12.17;11.20;;;1.80;99.90;;;;;;4992526;28;20649;-70
2023/01/19 15:12:49;;;;;;;12.97;11.87;;;1.80;99.90;;;;;;4992322;28;20203;-70
2023/01/19 15:15:18;;;;;;;12.90;11.80;;;1.70;99.90;;;;;;4992696;28;20569;-71
2023/01/19 15:17:44;;;;;;;11.70;10.63;;;1.70;99.90;;;;;;4992065;28;20186;-71
2023/01/19 15:20:19;;;;;;;12.77;11.63;;;1.70;99.90;;;;;;4992478;28;20186;-70
2023/01/19 15:22:45;;;;;;;11.83;10.80;;;1.70;99.90;;;;;;4992466;28;20207;-70
2023/01/19 15:25:16;;;;;;;12.13;10.93;;;1.60;99.90;;;;;;4992176;28;20215;-70
2023/01/19 15:27:43;;;;;;;11.87;10.77;;;1.60;99.90;;;;;;4992275;28;20524;-70
2023/01/19 15:30:35;;;;;;;12.73;10.40;;;1.60;99.90;;;;;;4992259;28;20198;-70
2023/01/19 15:33:01;;;;;;;13.60;10.90;;;1.50;99.90;;;;;;4988360;28;20607;-70
2023/01/19 15:35:27;;;;;;;11.57;10.47;;;1.50;99.90;;;;;;4992247;28;20204;-69
2023/01/19 15:37:52;;;;;;;11.20;10.17;;;1.50;99.90;;;;;;4992213;28;20213;-69
2023/01/19 15:40:21;;;;;;;13.53;9.80;;;1.50;99.90;;;;;;4992509;28;20180;-69
2023/01/19 15:42:47;;;;;;;12.47;11.27;;;1.50;99.90;;;;;;4974580;28;20207;-69
2023/01/19 15:45:35;;;;;;;12.53;11.37;;;1.50;99.90;;;;;;4991936;28;20313;-69
2023/01/19 15:48:06;;;;;;;13.20;11.20;;;1.50;99.90;;;;;;4991273;28;20184;-69
2023/01/19 15:50:34;;;;;;;11.83;10.73;;;1.50;99.90;;;;;;4974230;28;20256;-69
2023/01/19 15:53:00;;;;;;;13.70;12.53;;;1.40;99.90;;;;;;4991971;28;20176;-70
2023/01/19 15:55:26;;;;;;;11.87;10.77;;;1.40;99.90;;;;;;4992181;28;20700;-70
2023/01/19 15:57:52;;;;;;;13.57;12.30;;;1.40;99.90;;;;;;4974368;28;20580;-69
2023/01/19 16:00:18;;;;;;;13.93;12.80;;;1.40;99.90;;;;;;4991624;28;20190;-69
2023/01/19 16:02:44;;;;;;;17.93;16.43;;;1.40;99.90;;;;;;4991345;28;20223;-69
2023/01/19 16:05:10;;;;;;;15.70;14.40;;;1.40;99.90;;;;;;4993444;28;20250;-69
2023/01/19 16:07:36;;;;;;;13.87;12.77;;;1.30;99.90;;;;;;4990511;28;20211;-69
2023/01/19 16:10:04;;;;;;;12.90;11.70;;;1.30;99.90;;;;;;4991604;28;20669;-68
2023/01/19 16:12:30;;;;;;;13.60;12.50;;;1.20;99.90;;;;;;4991283;28;20621;-70
2023/01/19 16:14:56;;;;;;;13.47;12.27;;;1.10;99.90;;;;;;4991503;28;20190;-69
2023/01/19 16:17:21;;;;;;;12.30;11.20;;;1.10;99.90;;;;;;4973632;28;20233;-71
2023/01/19 16:19:47;;;;;;;11.53;10.20;;;1.10;99.90;;;;;;4973968;28;20185;-70
2023/01/19 16:22:13;;;;;;;12.73;11.40;;;1.10;99.90;;;;;;4991182;28;20621;-70
2023/01/19 16:24:38;;;;;;;11.30;10.27;;;1.10;99.90;;;;;;4991422;28;20189;-70
2023/01/19 16:27:04;;;;;;;10.87;9.97;;;1.10;99.90;;;;;;4973657;28;20272;-71
2023/01/19 16:29:30;;;;;;;11.73;10.63;;;1.10;99.90;;;;;;4974098;28;20245;-71
2023/01/19 16:31:56;;;;;;;11.30;10.27;;;1.10;99.90;;;;;;4991485;28;20281;-71
2023/01/19 16:34:24;;;;;;;10.07;9.27;;;1.10;99.90;;;;;;4973902;28;20277;-70
2023/01/19 16:36:50;;;;;;;10.13;9.33;;;1.10;99.90;;;;;;4973957;28;20664;-71
2023/01/19 16:39:16;;;;;;;12.97;11.07;;;1.10;99.90;;;;;;4974008;28;20596;-70
2023/01/19 16:41:43;;;;;;;12.87;10.40;;;1.00;99.90;;;;;;4973866;28;20214;-70
2023/01/19 16:44:10;;;;;;;11.30;10.10;;;0.90;99.90;;;;;;4991198;28;20683;-70
2023/01/19 16:46:39;;;;;;;15.57;11.90;;;0.90;99.90;;;;;;4974140;28;20228;-70
2023/01/19 16:49:17;;;;;;;12.83;11.33;;;0.80;99.90;;;;;;4973490;28;20184;-71
2023/01/19 16:51:43;;;;;;;12.87;11.33;;;0.80;99.90;;;;;;4973946;28;20223;-70
2023/01/19 16:54:24;;;;;;;11.40;9.97;;;0.80;99.90;;;;;;4973764;28;20527;-70